»·PEaware :: N101JP KCRQ-KCMA

N101JP :: KCRQ-KCMA

FLIGHT INFORMATION

Flight Status: Arrived
Operator: Privately registered:
United States
More flights under this callsign
Pilot: James T. (870)
Aircraft: PILATUS PC-12 EAGLE
(PC12)
More flights by this aircraft type
Origin: KCRQ McClellan-Palomar
United States
Destination: KCMA Camarillo
United States
More flights between these airports :: More routes between these airports
Route: MZB293 V27 SXC V208 VTU
File this flight plan on PilotEdge
Remarks:
Altitude:
(Current/Filed)
8,000ft
Speed:
(Current/Filed)
200kts
Departed: 12-Jun-15 08:22 AM
Arrived: 12-Jun-15 09:03 AM
Distance/Time
Traveled:
111nm/0:41
Distance/Time
To Go:
Arrived

Flight Plot

Page will automatically refresh every two minutes.


Map Options




Map Legend


Flown Route
Filed Route
Departure Airport
Arrival Airport
Navaid (VOR, NDB)
Fix

Horizontal Profiles

Position Reports

Time Latitude Longitude Heading Altitude Ground
Speed
12-Jun-15 08:06 33.126350 -117.280741 1 337ft 0kts
12-Jun-15 08:07 33.126350 -117.280741 1 337ft 0kts
12-Jun-15 08:08 33.126350 -117.280741 1 337ft 0kts
12-Jun-15 08:09 33.126350 -117.280741 1 337ft 0kts
12-Jun-15 08:10 33.126350 -117.280741 1 337ft 0kts
12-Jun-15 08:11 33.126350 -117.280741 1 337ft 0kts
12-Jun-15 08:12 33.127272 -117.279804 46 336ft 11kts
12-Jun-15 08:13 33.128040 -117.276178 78 337ft 14kts
12-Jun-15 08:14 33.128366 -117.272571 86 337ft 6kts
12-Jun-15 08:15 33.128623 -117.272398 349 336ft 0kts
12-Jun-15 08:16 33.129180 -117.274305 257 337ft 36kts
12-Jun-15 08:17 33.125641 -117.314882 264 1361ft 157kts
12-Jun-15 08:18 33.122397 -117.367857 264 3061ft 163kts
12-Jun-15 08:19 33.119205 -117.421617 264 4783ft 164kts
12-Jun-15 08:20 33.115988 -117.475396 264 6478ft 163kts
12-Jun-15 08:21 33.112585 -117.528808 264 7962ft 165kts
12-Jun-15 08:22 33.108073 -117.590119 264 8009ft 203kts
12-Jun-15 08:23 33.102450 -117.659369 264 8001ft 213kts
12-Jun-15 08:24 33.110707 -117.727537 302 7983ft 217kts
12-Jun-15 08:25 33.139480 -117.789995 293 7996ft 216kts
12-Jun-15 08:26 33.164051 -117.855406 293 7997ft 216kts
12-Jun-15 08:27 33.188489 -117.920432 294 7999ft 216kts
12-Jun-15 08:28 33.213143 -117.986083 294 8002ft 217kts
12-Jun-15 08:29 33.237960 -118.052277 294 8007ft 219kts
12-Jun-15 08:30 33.262998 -118.118975 294 7968ft 221kts
12-Jun-15 08:31 33.288236 -118.186173 293 7969ft 220kts
12-Jun-15 08:32 33.313564 -118.254130 293 7974ft 230kts
12-Jun-15 08:33 33.339996 -118.325234 293 7970ft 235kts
12-Jun-15 08:34 33.366708 -118.397270 293 7970ft 236kts
12-Jun-15 08:35 33.404234 -118.461167 309 7965ft 237kts
12-Jun-15 08:36 33.446628 -118.521699 310 7989ft 236kts
12-Jun-15 08:37 33.488982 -118.582119 310 7969ft 237kts
12-Jun-15 08:38 33.531284 -118.642560 310 7970ft 237kts
12-Jun-15 08:39 33.573233 -118.702599 310 8003ft 236kts
12-Jun-15 08:40 33.615353 -118.762974 310 8009ft 236kts
12-Jun-15 08:41 33.657555 -118.823589 310 8006ft 236kts
12-Jun-15 08:42 33.699664 -118.884160 310 8000ft 236kts
12-Jun-15 08:43 33.758718 -118.889495 14 8000ft 235kts
12-Jun-15 08:44 33.821884 -118.871189 13 7996ft 232kts
12-Jun-15 08:45 33.880345 -118.855050 13 7992ft 208kts
12-Jun-15 08:46 33.935492 -118.839797 13 7679ft 217kts
12-Jun-15 08:47 33.986143 -118.825782 13 6521ft 236kts
12-Jun-15 08:48 34.049325 -118.808264 12 5060ft 233kts
12-Jun-15 08:49 34.115991 -118.791467 355 4745ft 204kts
12-Jun-15 08:50 34.164817 -118.795284 355 3982ft 205kts
12-Jun-15 08:51 34.209558 -118.815398 278 3338ft 194kts
12-Jun-15 08:52 34.211658 -118.870405 269 3251ft 140kts
12-Jun-15 08:53 34.212169 -118.915721 269 2763ft 115kts
12-Jun-15 08:54 34.212599 -118.960442 271 2171ft 115kts
12-Jun-15 08:55 34.212892 -118.992695 271 1585ft 115kts
12-Jun-15 08:56 34.213224 -119.030603 271 901ft 110kts
12-Jun-15 08:57 34.213472 -119.066360 270 357ft 100kts
12-Jun-15 08:58 34.213720 -119.092317 269 83ft 23kts
12-Jun-15 08:59 34.211272 -119.094597 135 81ft 18kts
12-Jun-15 09:00 34.210868 -119.090365 89 80ft 10kts
12-Jun-15 09:01 34.210065 -119.089005 3 80ft 0kts
12-Jun-15 09:02 34.210065 -119.089005 3 80ft 0kts

Navigation Log

Ident Type
Flight plan parsing failed, navigation log unavailable